Time;durP1;ratioP1;P1;durP2;ratioP2;P2;SDS_P1;SDS_P2;PMS_P1;PMS_P2;Temp;Humidity;BMP_temperature;BMP_pressure;BME280_temperature;BME280_humidity;BME280_pressure;Samples;Min_cycle;Max_cycle;Signal;HPM_P1;HPM_P2
2022/07/25 00:00:28;;;;;;;8.47;7.70;;;20.00;99.90;;;;;;5098318;27;20217;-46
2022/07/25 00:02:55;;;;;;;7.00;6.43;;;20.00;99.90;;;;;;5106258;28;20193;-48
2022/07/25 00:05:22;;;;;;;7.80;7.20;;;19.90;99.90;;;;;;5090331;27;20193;-50
2022/07/25 00:07:50;;;;;;;7.37;6.67;;;19.90;99.90;;;;;;5113760;27;20225;-45
2022/07/25 00:10:17;;;;;;;7.23;6.53;;;19.90;99.90;;;;;;5110437;27;20224;-48
2022/07/25 00:12:45;;;;;;;8.00;7.20;;;19.90;99.90;;;;;;5103503;28;20190;-45
2022/07/25 00:15:13;;;;;;;8.00;7.20;;;19.90;99.90;;;;;;5100661;28;20593;-48
2022/07/25 00:17:40;;;;;;;7.10;6.50;;;19.80;99.90;;;;;;5116679;27;20292;-46
2022/07/25 00:20:08;;;;;;;7.87;7.10;;;19.80;99.90;;;;;;5113131;28;20691;-48
2022/07/25 00:22:35;;;;;;;7.47;6.87;;;19.80;99.90;;;;;;5101476;27;20197;-45
2022/07/25 00:25:01;;;;;;;7.47;6.80;;;19.70;99.90;;;;;;5108510;27;20246;-46
2022/07/25 00:27:28;;;;;;;7.60;7.00;;;19.70;99.90;;;;;;5104378;28;20418;-45
2022/07/25 00:29:56;;;;;;;7.20;6.60;;;19.70;99.90;;;;;;5110512;27;20711;-46
2022/07/25 00:32:23;;;;;;;7.60;6.80;;;19.60;99.90;;;;;;5108112;27;20201;-50
2022/07/25 00:34:50;;;;;;;7.60;6.90;;;19.60;99.90;;;;;;5107958;27;20571;-46
2022/07/25 00:37:17;;;;;;;8.40;7.70;;;19.50;99.90;;;;;;5097686;27;20282;-46
2022/07/25 00:39:44;;;;;;;7.50;6.87;;;19.50;99.90;;;;;;5112823;27;20205;-46
2022/07/25 00:42:12;;;;;;;7.80;7.10;;;19.60;99.90;;;;;;5110261;27;20419;-47
2022/07/25 00:44:39;;;;;;;7.80;7.20;;;19.50;99.90;;;;;;5104989;27;20189;-46
2022/07/25 00:47:07;;;;;;;7.67;7.07;;;19.50;99.90;;;;;;5105259;27;20213;-45
2022/07/25 00:49:34;;;;;;;7.70;7.10;;;19.40;99.90;;;;;;5124219;27;20220;-50
2022/07/25 00:52:01;;;;;;;7.40;6.73;;;19.40;99.90;;;;;;5127367;27;20208;-48
2022/07/25 00:54:29;;;;;;;7.70;6.70;;;19.40;99.90;;;;;;5102523;27;20192;-48
2022/07/25 00:56:56;;;;;;;7.30;6.80;;;19.40;99.90;;;;;;5110771;27;20213;-46
2022/07/25 00:59:22;;;;;;;8.53;7.27;;;19.40;99.90;;;;;;5106319;27;20204;-46
2022/07/25 01:01:50;;;;;;;7.77;7.17;;;19.30;99.90;;;;;;5113818;27;20205;-47
2022/07/25 01:04:18;;;;;;;8.03;7.33;;;19.40;99.90;;;;;;5110536;27;20561;-47
2022/07/25 01:06:45;;;;;;;7.23;6.73;;;19.30;99.90;;;;;;5125750;27;20213;-45
2022/07/25 01:09:12;;;;;;;7.57;6.87;;;19.40;99.90;;;;;;5104097;27;20212;-48
2022/07/25 01:11:39;;;;;;;8.57;7.77;;;19.40;99.90;;;;;;5105797;27;20193;-46
2022/07/25 01:14:06;;;;;;;7.40;6.80;;;19.40;99.90;;;;;;5103667;27;20204;-46
2022/07/25 01:16:33;;;;;;;7.40;6.80;;;19.40;99.90;;;;;;5108028;27;20216;-45
2022/07/25 01:19:00;;;;;;;8.47;6.90;;;19.30;99.90;;;;;;5103758;27;20657;-45
2022/07/25 01:21:28;;;;;;;6.80;6.30;;;19.30;99.90;;;;;;5122968;27;21220;-48
2022/07/25 01:23:55;;;;;;;7.40;6.43;;;19.30;99.90;;;;;;5109892;27;20208;-45
2022/07/25 01:26:22;;;;;;;6.80;6.30;;;19.40;99.90;;;;;;5113390;27;20715;-45
2022/07/25 01:28:49;;;;;;;9.67;7.20;;;19.40;99.90;;;;;;5109859;27;20250;-46
2022/07/25 01:31:16;;;;;;;7.57;6.80;;;19.30;99.90;;;;;;5114693;27;20189;-47
2022/07/25 01:33:43;;;;;;;7.17;6.53;;;19.30;99.90;;;;;;5107108;27;20216;-46
2022/07/25 01:36:10;;;;;;;7.63;7.07;;;19.30;99.90;;;;;;5106950;27;20232;-46
2022/07/25 01:38:38;;;;;;;7.17;6.47;;;19.30;99.90;;;;;;5105544;27;20196;-47
2022/07/25 01:41:06;;;;;;;7.00;6.40;;;19.30;99.90;;;;;;5106001;27;20685;-48
2022/07/25 01:43:33;;;;;;;7.93;6.77;;;19.20;99.90;;;;;;5110180;27;20926;-45
2022/07/25 01:45:59;;;;;;;8.03;6.90;;;19.20;99.90;;;;;;5106520;27;20217;-45
2022/07/25 01:48:27;;;;;;;7.07;6.47;;;19.20;99.90;;;;;;5102681;28;20287;-45
2022/07/25 01:50:54;;;;;;;7.00;6.50;;;19.20;99.90;;;;;;5104748;27;20240;-45
2022/07/25 01:53:21;;;;;;;9.40;6.33;;;19.20;99.90;;;;;;5103315;27;20208;-48
2022/07/25 01:55:49;;;;;;;7.10;6.60;;;19.20;99.90;;;;;;5095829;27;20209;-45
2022/07/25 01:58:16;;;;;;;7.07;6.47;;;19.20;99.90;;;;;;5114590;27;20200;-46
2022/07/25 02:00:46;;;;;;;6.90;6.20;;;19.20;99.90;;;;;;5106616;27;20222;-48
2022/07/25 02:03:31;;;;;;;7.17;6.30;;;19.20;99.90;;;;;;5114978;27;20676;-45
2022/07/25 02:06:01;;;;;;;6.77;6.27;;;19.20;99.90;;;;;;5109214;27;20216;-46
2022/07/25 02:08:28;;;;;;;6.93;6.33;;;19.20;99.90;;;;;;5105152;27;20189;-49
2022/07/25 02:10:57;;;;;;;6.73;6.13;;;19.20;99.90;;;;;;5098100;27;20213;-46
2022/07/25 02:13:25;;;;;;;6.10;5.60;;;19.30;99.90;;;;;;5110497;27;20205;-50
2022/07/25 02:15:52;;;;;;;5.87;5.43;;;19.30;99.90;;;;;;5105896;27;20718;-46
2022/07/25 02:18:19;;;;;;;7.10;6.50;;;19.30;99.90;;;;;;5103651;27;20209;-47
2022/07/25 02:20:46;;;;;;;6.90;5.80;;;19.30;99.90;;;;;;5105608;27;20650;-45
2022/07/25 02:23:13;;;;;;;5.37;4.97;;;19.30;99.90;;;;;;5098797;27;20205;-48
2022/07/25 02:25:40;;;;;;;6.30;5.80;;;19.30;99.90;;;;;;5093422;27;20918;-46
2022/07/25 02:28:08;;;;;;;7.40;5.17;;;19.30;99.90;;;;;;5111118;27;20201;-45
2022/07/25 02:30:35;;;;;;;5.60;5.20;;;19.30;99.90;;;;;;5102422;27;20205;-45
2022/07/25 02:33:01;;;;;;;6.00;5.50;;;19.30;99.90;;;;;;5105933;28;20197;-46
2022/07/25 02:35:28;;;;;;;7.80;5.40;;;19.40;99.90;;;;;;5101539;27;20193;-48
2022/07/25 02:37:55;;;;;;;6.10;5.53;;;19.40;99.90;;;;;;5106405;27;20585;-46
2022/07/25 02:40:22;;;;;;;5.67;5.10;;;19.40;99.90;;;;;;5103171;27;20211;-48
2022/07/25 02:42:50;;;;;;;6.00;5.13;;;19.40;99.90;;;;;;5109466;27;20233;-45
2022/07/25 02:45:18;;;;;;;5.37;4.93;;;19.40;99.90;;;;;;5106307;27;20279;-46
2022/07/25 02:47:45;;;;;;;5.63;5.23;;;19.40;99.90;;;;;;5103944;27;20216;-45
2022/07/25 02:50:12;;;;;;;5.70;5.30;;;19.40;99.90;;;;;;5104610;28;20213;-48
2022/07/25 02:52:39;;;;;;;5.00;4.60;;;19.40;99.90;;;;;;5099741;27;20345;-45
2022/07/25 02:55:07;;;;;;;11.47;5.00;;;19.40;99.90;;;;;;5109098;27;20611;-48
2022/07/25 02:57:34;;;;;;;5.17;4.77;;;19.40;99.90;;;;;;5095058;27;20219;-45
2022/07/25 03:00:01;;;;;;;5.10;4.50;;;19.40;99.90;;;;;;5110921;27;20198;-45
2022/07/25 03:02:29;;;;;;;4.97;4.60;;;19.40;99.90;;;;;;5101396;28;20201;-46
2022/07/25 03:04:56;;;;;;;4.60;4.20;;;19.40;99.90;;;;;;5105001;27;20201;-45
2022/07/25 03:07:23;;;;;;;5.07;4.40;;;19.40;99.90;;;;;;5107100;27;20223;-49
2022/07/25 03:09:49;;;;;;;4.30;3.90;;;19.40;99.90;;;;;;5107153;27;20213;-45
2022/07/25 03:12:16;;;;;;;4.30;4.00;;;19.40;99.90;;;;;;5096073;27;20204;-47
2022/07/25 03:14:43;;;;;;;5.70;4.27;;;19.40;99.90;;;;;;5102822;27;20189;-45
2022/07/25 03:17:10;;;;;;;6.47;4.50;;;19.40;99.90;;;;;;5108641;27;20217;-49
2022/07/25 03:19:38;;;;;;;4.30;3.90;;;19.40;99.90;;;;;;5102568;27;20211;-45
2022/07/25 03:22:05;;;;;;;3.90;3.50;;;19.40;99.90;;;;;;5106687;27;20196;-48
2022/07/25 03:24:32;;;;;;;3.63;3.37;;;19.30;99.90;;;;;;5097612;27;20282;-46
2022/07/25 03:26:59;;;;;;;3.83;3.53;;;19.40;99.90;;;;;;5105049;27;20225;-45
2022/07/25 03:29:26;;;;;;;4.07;3.53;;;19.40;99.90;;;;;;5090720;27;20280;-47
2022/07/25 03:31:52;;;;;;;4.00;3.70;;;19.40;99.90;;;;;;5112466;27;20230;-45
2022/07/25 03:34:20;;;;;;;3.83;3.40;;;19.40;99.90;;;;;;5101566;28;20216;-45
2022/07/25 03:36:48;;;;;;;3.67;3.37;;;19.40;99.90;;;;;;5103804;28;20227;-45
2022/07/25 03:39:15;;;;;;;3.63;3.43;;;19.40;99.90;;;;;;5098511;27;20587;-45
2022/07/25 03:41:42;;;;;;;3.67;3.47;;;19.40;99.90;;;;;;5122394;27;20185;-45
2022/07/25 03:44:09;;;;;;;3.87;3.50;;;19.40;99.90;;;;;;5107612;27;20223;-45
2022/07/25 03:46:36;;;;;;;4.33;3.60;;;19.40;99.90;;;;;;5103604;27;20216;-45
2022/07/25 03:49:03;;;;;;;3.83;3.53;;;19.40;99.90;;;;;;5104587;28;20216;-48
2022/07/25 03:51:31;;;;;;;4.60;3.13;;;19.40;99.90;;;;;;5100462;28;20938;-47
2022/07/25 03:54:02;;;;;;;3.30;2.87;;;19.40;99.90;;;;;;5104314;28;20666;-45
2022/07/25 03:56:29;;;;;;;6.63;3.53;;;19.40;99.90;;;;;;5097347;27;20216;-45
2022/07/25 03:58:56;;;;;;;4.07;3.67;;;19.40;99.90;;;;;;5103968;28;20205;-46
2022/07/25 04:01:23;;;;;;;5.30;3.40;;;19.40;99.90;;;;;;5090709;27;20204;-48
2022/07/25 04:03:50;;;;;;;3.30;3.00;;;19.40;99.90;;;;;;5110087;27;20240;-46
2022/07/25 04:06:17;;;;;;;3.70;3.40;;;19.50;99.90;;;;;;5099744;28;20245;-46
2022/07/25 04:08:44;;;;;;;3.53;3.23;;;19.50;99.90;;;;;;5113036;27;20196;-48
2022/07/25 04:11:12;;;;;;;5.30;3.20;;;19.60;99.90;;;;;;5106744;27;20224;-49
2022/07/25 04:13:39;;;;;;;4.87;3.07;;;19.60;99.90;;;;;;5101392;28;20189;-45
2022/07/25 04:16:06;;;;;;;3.63;3.33;;;19.60;99.90;;;;;;5096167;28;20693;-45
2022/07/25 04:18:33;;;;;;;4.27;2.60;;;19.60;99.90;;;;;;5103112;27;20194;-47
2022/07/25 04:21:02;;;;;;;3.03;2.83;;;19.70;99.90;;;;;;5104088;28;20193;-46
2022/07/25 04:23:29;;;;;;;3.67;3.10;;;19.70;99.90;;;;;;5108855;28;20201;-50
2022/07/25 04:25:56;;;;;;;3.20;3.00;;;19.70;99.90;;;;;;5113256;28;20204;-47
2022/07/25 04:28:25;;;;;;;2.70;2.37;;;19.80;99.90;;;;;;5107934;28;20242;-50
2022/07/25 04:30:52;;;;;;;4.03;2.90;;;19.80;99.90;;;;;;5123261;28;20703;-47
2022/07/25 04:33:20;;;;;;;2.87;2.67;;;19.90;99.90;;;;;;5097794;28;20209;-45
2022/07/25 04:35:48;;;;;;;4.53;2.97;;;19.90;99.90;;;;;;5107348;28;20654;-45
2022/07/25 04:38:15;;;;;;;3.17;2.97;;;20.00;99.90;;;;;;5097353;28;20270;-47
2022/07/25 04:40:43;;;;;;;2.93;2.70;;;20.00;99.90;;;;;;5114045;28;20288;-45
2022/07/25 04:43:10;;;;;;;3.07;2.63;;;20.00;99.90;;;;;;5102747;28;20266;-47
2022/07/25 04:45:39;;;;;;;3.33;2.33;;;20.10;99.90;;;;;;5101060;28;20201;-47
2022/07/25 04:48:05;;;;;;;3.73;2.90;;;20.10;99.90;;;;;;5100833;28;20208;-47
2022/07/25 04:50:33;;;;;;;5.57;3.10;;;20.20;99.90;;;;;;5102543;28;20217;-46
2022/07/25 04:53:00;;;;;;;3.80;3.00;;;20.20;99.90;;;;;;5103513;28;20205;-45
2022/07/25 04:55:27;;;;;;;3.23;3.03;;;20.30;99.90;;;;;;5098347;28;20254;-46
2022/07/25 04:57:53;;;;;;;2.63;2.43;;;20.40;99.90;;;;;;5109764;27;20229;-45
2022/07/25 05:00:22;;;;;;;4.03;3.03;;;20.40;99.90;;;;;;5101897;28;20208;-47
2022/07/25 05:02:51;;;;;;;3.00;2.80;;;20.50;99.90;;;;;;5107868;28;20208;-45
2022/07/25 05:05:19;;;;;;;4.30;2.80;;;20.50;99.90;;;;;;5106821;28;20354;-49
2022/07/25 05:07:46;;;;;;;3.10;2.90;;;20.50;99.90;;;;;;5102913;28;20237;-45
2022/07/25 05:10:13;;;;;;;3.00;2.80;;;20.50;99.90;;;;;;5097250;28;20212;-47
2022/07/25 05:12:40;;;;;;;2.77;2.57;;;20.50;99.90;;;;;;5099905;27;20197;-45
2022/07/25 05:15:07;;;;;;;3.50;2.47;;;20.60;99.90;;;;;;5126215;27;20536;-47
2022/07/25 05:17:35;;;;;;;3.63;3.03;;;20.60;99.90;;;;;;5123921;27;20209;-45
2022/07/25 05:20:04;;;;;;;3.27;3.00;;;20.70;99.90;;;;;;5107930;27;20197;-47
2022/07/25 05:22:30;;;;;;;3.63;2.77;;;20.70;99.90;;;;;;5106095;27;20276;-45
2022/07/25 05:24:57;;;;;;;3.43;3.03;;;20.80;99.80;;;;;;5101921;27;20242;-45
2022/07/25 05:27:24;;;;;;;4.00;2.90;;;20.90;99.70;;;;;;5105429;27;20209;-47
2022/07/25 05:29:51;;;;;;;4.20;2.83;;;21.00;99.50;;;;;;5117910;27;20308;-45
2022/07/25 05:32:18;;;;;;;2.90;2.70;;;21.00;99.30;;;;;;5104649;27;20576;-49
2022/07/25 05:34:45;;;;;;;3.60;2.60;;;21.10;99.30;;;;;;5099725;27;20193;-45
2022/07/25 05:37:13;;;;;;;5.10;2.70;;;21.20;98.90;;;;;;5105974;27;20588;-48
2022/07/25 05:39:40;;;;;;;3.43;3.07;;;21.30;98.70;;;;;;5108593;27;20199;-44
2022/07/25 05:42:07;;;;;;;6.37;3.30;;;21.40;98.50;;;;;;5104958;27;20209;-48
2022/07/25 05:44:34;;;;;;;3.20;2.90;;;21.50;98.00;;;;;;5102230;27;20192;-45
2022/07/25 05:47:01;;;;;;;2.73;2.53;;;21.60;97.70;;;;;;5113961;27;20222;-47
2022/07/25 05:49:28;;;;;;;3.07;2.50;;;21.70;97.70;;;;;;5097615;27;21793;-45
2022/07/25 05:51:55;;;;;;;3.27;2.97;;;21.70;97.50;;;;;;5112596;27;20221;-45
2022/07/25 05:54:23;;;;;;;6.23;3.00;;;21.80;97.30;;;;;;5111066;27;20197;-45
2022/07/25 05:56:50;;;;;;;4.10;2.80;;;21.90;96.90;;;;;;5109006;27;20712;-45
2022/07/25 05:59:17;;;;;;;3.93;2.77;;;22.00;96.60;;;;;;5113260;27;20228;-47
2022/07/25 06:01:44;;;;;;;3.50;2.80;;;22.10;96.20;;;;;;5110026;27;20197;-45
2022/07/25 06:04:11;;;;;;;4.27;2.70;;;22.20;96.00;;;;;;5100863;27;20201;-45
2022/07/25 06:06:38;;;;;;;4.50;2.87;;;22.30;95.90;;;;;;5102939;27;20221;-45
2022/07/25 06:09:05;;;;;;;3.07;2.80;;;22.30;95.60;;;;;;5112774;27;20214;-47
2022/07/25 06:11:33;;;;;;;3.13;2.83;;;22.40;95.20;;;;;;5109264;27;22627;-45
2022/07/25 06:14:00;;;;;;;3.50;3.17;;;22.50;94.90;;;;;;5114329;27;20284;-45
2022/07/25 06:16:27;;;;;;;4.07;3.08;;;22.60;94.80;;;;;;5096361;27;20220;-46
2022/07/25 06:18:54;;;;;;;3.10;2.90;;;22.70;94.60;;;;;;5108552;27;20198;-47
2022/07/25 06:21:21;;;;;;;3.90;2.78;;;22.70;94.40;;;;;;5091736;27;20209;-46
2022/07/25 06:23:48;;;;;;;3.03;2.73;;;22.80;94.20;;;;;;5113065;27;20283;-45
2022/07/25 06:26:15;;;;;;;4.70;2.97;;;22.90;94.20;;;;;;5105989;27;20209;-50
2022/07/25 06:28:44;;;;;;;4.95;3.25;;;23.00;94.20;;;;;;5105909;27;20957;-45
2022/07/25 06:31:11;;;;;;;2.80;2.60;;;23.00;94.10;;;;;;5102281;27;20299;-47
2022/07/25 06:33:37;;;;;;;2.80;2.60;;;23.10;93.80;;;;;;5102397;28;20196;-45
2022/07/25 06:36:05;;;;;;;2.80;2.60;;;23.20;93.60;;;;;;5093591;27;20217;-45
2022/07/25 06:38:32;;;;;;;3.33;3.00;;;23.30;93.50;;;;;;5107744;27;20189;-46
2022/07/25 06:40:59;;;;;;;3.83;2.55;;;23.40;93.30;;;;;;5111630;27;20185;-47
2022/07/25 06:43:26;;;;;;;4.80;3.25;;;23.50;93.00;;;;;;5108508;27;20879;-44
2022/07/25 06:45:54;;;;;;;4.45;3.33;;;23.60;92.80;;;;;;5105386;27;20292;-43
2022/07/25 06:48:23;;;;;;;3.30;3.00;;;23.70;92.40;;;;;;5106409;27;20254;-47
2022/07/25 06:50:50;;;;;;;3.10;2.90;;;23.70;92.30;;;;;;5101288;27;20220;-43
2022/07/25 06:53:17;;;;;;;3.20;2.80;;;23.80;92.00;;;;;;5107057;27;20201;-44
2022/07/25 06:55:46;;;;;;;3.95;3.13;;;23.90;91.80;;;;;;5106941;27;20198;-47
2022/07/25 06:58:12;;;;;;;3.58;2.67;;;23.90;91.90;;;;;;5109185;27;20199;-48
2022/07/25 07:00:39;;;;;;;3.22;2.67;;;24.00;91.70;;;;;;5108872;27;20189;-44
2022/07/25 07:03:07;;;;;;;4.28;3.22;;;24.00;91.50;;;;;;5110276;27;20216;-45
2022/07/25 07:05:36;;;;;;;3.80;2.75;;;24.00;91.50;;;;;;5097871;27;20203;-44
2022/07/25 07:08:03;;;;;;;3.08;2.78;;;24.10;91.50;;;;;;5095223;27;20217;-44
2022/07/25 07:10:30;;;;;;;5.57;2.58;;;24.10;91.50;;;;;;5112317;27;20269;-45
2022/07/25 07:13:05;;;;;;;5.07;2.90;;;24.20;91.60;;;;;;5111818;27;20224;-44
2022/07/25 07:15:32;;;;;;;3.25;2.78;;;24.20;91.50;;;;;;5103289;27;20208;-45
2022/07/25 07:17:59;;;;;;;4.82;3.10;;;24.30;91.60;;;;;;5104385;27;20701;-45
2022/07/25 07:20:27;;;;;;;3.08;2.88;;;24.40;91.90;;;;;;5100636;27;20276;-44
2022/07/25 07:22:53;;;;;;;4.20;3.10;;;24.60;91.20;;;;;;5095796;27;20192;-44
2022/07/25 07:25:22;;;;;;;4.35;3.20;;;24.70;91.60;;;;;;5107587;27;20269;-46
2022/07/25 07:27:50;;;;;;;2.80;2.60;;;24.90;90.80;;;;;;5106974;27;20212;-45
2022/07/25 07:30:17;;;;;;;4.80;3.20;;;25.00;90.60;;;;;;5104478;27;20527;-46
2022/07/25 07:32:44;;;;;;;3.53;3.22;;;25.10;90.50;;;;;;5106307;27;20232;-44
2022/07/25 07:35:15;;;;;;;4.13;3.25;;;25.30;90.50;;;;;;5108809;27;20197;-46
2022/07/25 07:37:43;;;;;;;6.55;3.38;;;25.50;89.80;;;;;;5114783;27;20273;-47
2022/07/25 07:40:11;;;;;;;5.43;3.30;;;25.60;88.30;;;;;;5095409;27;20272;-45
2022/07/25 07:42:39;;;;;;;4.10;3.63;;;25.70;87.20;;;;;;5115434;27;20189;-45
2022/07/25 07:45:17;;;;;;;4.45;2.97;;;25.80;86.50;;;;;;5104013;27;20201;-47
2022/07/25 07:47:46;;;;;;;5.70;3.97;;;25.90;86.20;;;;;;5109053;27;20269;-44
2022/07/25 07:50:14;;;;;;;3.88;3.45;;;26.00;86.20;;;;;;5108085;27;20549;-44
2022/07/25 07:52:40;;;;;;;4.00;3.70;;;26.10;86.20;;;;;;5107431;27;20205;-43
2022/07/25 07:57:54;;;;;;;3.38;3.10;;;26.30;84.60;;;;;;5108596;27;20240;-48
2022/07/25 08:00:22;;;;;;;3.97;3.58;;;26.30;84.20;;;;;;5105148;27;20241;-45
2022/07/25 08:02:52;;;;;;;3.85;3.47;;;26.40;84.00;;;;;;5104598;28;20191;-47
2022/07/25 08:05:23;;;;;;;4.82;3.85;;;26.40;83.10;;;;;;5099183;27;20250;-46
2022/07/25 08:07:51;;;;;;;4.43;3.60;;;26.50;83.50;;;;;;5115618;27;20729;-44
2022/07/25 08:10:22;;;;;;;3.80;3.50;;;26.60;82.80;;;;;;5098133;27;20204;-45
2022/07/25 08:12:50;;;;;;;5.53;4.13;;;26.80;82.90;;;;;;5108586;27;20213;-46
2022/07/25 08:15:18;;;;;;;4.85;3.80;;;26.90;82.00;;;;;;5106531;27;20245;-45
2022/07/25 08:17:45;;;;;;;4.45;4.15;;;27.00;80.80;;;;;;5105347;27;20306;-46
2022/07/25 08:20:13;;;;;;;4.10;3.70;;;27.10;80.30;;;;;;5101035;27;20975;-46
2022/07/25 08:22:42;;;;;;;6.07;3.90;;;27.20;80.00;;;;;;5111553;28;20208;-44
2022/07/25 08:25:10;;;;;;;4.82;4.20;;;27.30;79.60;;;;;;5096686;28;20209;-44
2022/07/25 08:27:38;;;;;;;5.07;4.28;;;27.50;79.50;;;;;;5113207;28;20220;-44
2022/07/25 08:30:07;;;;;;;4.82;4.00;;;27.50;79.00;;;;;;5101194;28;20808;-44
2022/07/25 08:32:34;;;;;;;5.95;3.97;;;27.60;78.00;;;;;;5107118;27;20232;-44
2022/07/25 08:35:01;;;;;;;6.25;4.13;;;27.70;77.50;;;;;;5095639;28;20709;-44
2022/07/25 08:37:28;;;;;;;5.30;4.00;;;27.80;76.60;;;;;;5119524;28;20216;-44
2022/07/25 08:39:56;;;;;;;4.65;4.25;;;28.00;76.40;;;;;;5086833;28;20219;-46
2022/07/25 08:42:22;;;;;;;4.43;4.03;;;28.20;75.90;;;;;;5116347;28;20208;-47
2022/07/25 08:44:58;;;;;;;4.60;4.30;;;28.50;75.20;;;;;;5114511;27;20192;-45
2022/07/25 08:47:27;;;;;;;7.00;4.57;;;28.60;73.90;;;;;;5108415;27;20848;-44
2022/07/25 08:49:55;;;;;;;4.57;4.13;;;28.80;73.40;;;;;;5113417;27;20204;-46
2022/07/25 08:52:23;;;;;;;4.85;4.45;;;28.80;72.60;;;;;;5108002;27;20277;-45
2022/07/25 08:54:50;;;;;;;6.05;4.47;;;28.70;72.00;;;;;;5101793;27;20199;-46
2022/07/25 08:57:17;;;;;;;5.13;4.60;;;28.90;71.30;;;;;;5110781;27;20215;-44
2022/07/25 08:59:44;;;;;;;4.68;4.25;;;29.00;71.00;;;;;;5114173;27;20257;-44
2022/07/25 09:02:15;;;;;;;5.90;4.50;;;29.00;70.60;;;;;;5105997;27;20544;-44
2022/07/25 09:04:43;;;;;;;4.88;4.47;;;29.20;69.90;;;;;;5119358;27;20204;-46
2022/07/25 09:07:09;;;;;;;4.80;4.40;;;29.20;69.90;;;;;;5104665;27;20232;-47
2022/07/25 09:09:38;;;;;;;4.78;4.45;;;29.30;70.30;;;;;;5112313;27;20193;-48
2022/07/25 09:12:06;;;;;;;5.82;4.95;;;29.50;69.00;;;;;;5090759;27;20201;-44
2022/07/25 09:14:41;;;;;;;5.55;4.80;;;29.60;67.90;;;;;;5111870;27;20197;-44
2022/07/25 09:17:08;;;;;;;9.23;5.40;;;29.60;66.40;;;;;;5103995;27;20243;-44
2022/07/25 09:19:36;;;;;;;5.00;4.60;;;29.60;66.80;;;;;;5110892;27;20599;-44
2022/07/25 09:22:05;;;;;;;4.93;4.53;;;29.80;66.20;;;;;;5103495;27;20189;-44
2022/07/25 09:24:33;;;;;;;5.22;4.82;;;29.90;66.00;;;;;;5114679;27;20844;-44
2022/07/25 09:27:07;;;;;;;5.72;5.22;;;30.10;65.00;;;;;;5098701;27;20346;-46
2022/07/25 09:29:34;;;;;;;7.70;5.40;;;30.20;65.00;;;;;;5107829;27;20184;-44
2022/07/25 09:32:13;;;;;;;7.68;5.32;;;30.40;64.90;;;;;;5111106;27;20587;-45
2022/07/25 09:34:44;;;;;;;5.05;4.60;;;30.60;63.00;;;;;;5107979;27;20204;-44
2022/07/25 09:37:13;;;;;;;5.38;5.00;;;30.70;61.10;;;;;;5115637;27;20231;-46
2022/07/25 09:39:42;;;;;;;5.40;4.90;;;30.80;60.50;;;;;;5107583;27;20208;-49
2022/07/25 09:42:20;;;;;;;5.18;4.78;;;30.70;60.10;;;;;;5113909;27;20641;-45
2022/07/25 09:45:03;;;;;;;5.18;4.78;;;30.70;59.60;;;;;;5107331;27;20192;-45
2022/07/25 09:47:30;;;;;;;5.13;4.72;;;30.80;60.50;;;;;;5111780;27;20324;-49
2022/07/25 09:49:58;;;;;;;5.20;4.88;;;31.00;60.00;;;;;;5117984;27;20802;-44
2022/07/25 09:52:27;;;;;;;7.05;5.00;;;31.00;59.60;;;;;;5100280;27;20284;-47
2022/07/25 09:54:54;;;;;;;6.57;5.32;;;31.00;59.70;;;;;;5110431;27;20200;-46
2022/07/25 09:57:22;;;;;;;5.80;4.72;;;31.00;59.40;;;;;;5094627;27;20583;-46
2022/07/25 09:59:49;;;;;;;5.72;4.80;;;31.00;59.20;;;;;;5114656;27;20224;-44
2022/07/25 10:02:33;;;;;;;6.63;4.78;;;31.10;59.10;;;;;;5111357;27;20208;-46
2022/07/25 10:05:12;;;;;;;5.25;4.75;;;31.10;57.90;;;;;;5112923;27;20227;-44
2022/07/25 10:07:43;;;;;;;5.57;4.75;;;31.10;57.00;;;;;;5103972;27;20216;-44
2022/07/25 10:10:26;;;;;;;4.25;4.00;;;31.00;57.30;;;;;;5106887;27;20207;-45
2022/07/25 10:13:04;;;;;;;5.53;5.03;;;31.00;57.40;;;;;;5105202;27;20221;-44
2022/07/25 10:15:49;;;;;;;7.55;5.88;;;31.10;57.50;;;;;;5097130;27;20212;-44
2022/07/25 10:18:18;;;;;;;5.10;4.80;;;31.20;57.90;;;;;;5111284;27;20227;-44
2022/07/25 10:20:49;;;;;;;6.15;4.88;;;31.30;57.60;;;;;;5108182;27;20193;-47
2022/07/25 10:23:24;;;;;;;5.15;4.75;;;31.20;57.10;;;;;;5106892;27;20665;-45
2022/07/25 10:26:08;;;;;;;5.20;4.80;;;31.20;57.00;;;;;;5108447;27;20205;-45
2022/07/25 10:28:38;;;;;;;5.20;4.80;;;31.20;57.20;;;;;;5108197;27;20189;-44
2022/07/25 10:31:16;;;;;;;5.07;4.68;;;31.20;57.10;;;;;;5090910;27;20212;-45
2022/07/25 10:33:43;;;;;;;5.22;4.50;;;31.30;57.20;;;;;;5113595;27;20243;-45
2022/07/25 10:36:12;;;;;;;5.57;5.18;;;31.30;57.60;;;;;;5110821;27;20214;-50
2022/07/25 10:38:40;;;;;;;5.28;4.78;;;31.30;57.20;;;;;;5100346;27;20343;-47
2022/07/25 10:41:09;;;;;;;5.32;4.95;;;31.30;57.90;;;;;;5105053;27;20287;-46
2022/07/25 10:43:39;;;;;;;6.78;4.53;;;31.20;57.30;;;;;;5096712;27;20204;-48
2022/07/25 10:46:15;;;;;;;7.70;5.20;;;31.00;57.10;;;;;;5105671;27;20228;-44
2022/07/25 10:48:42;;;;;;;5.50;5.20;;;30.90;57.50;;;;;;5105131;27;21071;-44
2022/07/25 10:51:13;;;;;;;4.90;4.53;;;30.90;57.70;;;;;;5118428;27;20203;-47
2022/07/25 10:53:47;;;;;;;5.32;4.85;;;30.80;57.10;;;;;;5098955;27;20374;-45
2022/07/25 10:56:16;;;;;;;4.95;4.55;;;30.80;57.60;;;;;;5112344;27;20228;-44
2022/07/25 10:58:50;;;;;;;4.97;4.55;;;30.80;57.80;;;;;;5106732;27;20209;-47
2022/07/25 11:01:23;;;;;;;4.85;4.47;;;30.90;57.90;;;;;;5087000;27;21437;-45
2022/07/25 11:03:50;;;;;;;5.05;4.65;;;31.00;58.00;;;;;;5110470;27;20193;-48
2022/07/25 11:06:31;;;;;;;5.10;4.70;;;31.00;58.10;;;;;;5102991;27;20932;-48
2022/07/25 11:08:59;;;;;;;4.82;4.53;;;31.10;58.30;;;;;;5103357;27;20204;-46
2022/07/25 11:11:37;;;;;;;5.70;5.20;;;31.20;58.30;;;;;;5104886;27;20185;-45
2022/07/25 11:14:13;;;;;;;5.18;4.88;;;31.20;57.50;;;;;;5106101;27;20209;-48
2022/07/25 11:16:39;;;;;;;5.53;4.90;;;31.10;57.80;;;;;;5094396;27;20224;-45
2022/07/25 11:19:19;;;;;;;5.32;4.93;;;31.00;57.60;;;;;;5110134;27;20196;-47
2022/07/25 11:21:48;;;;;;;5.78;5.38;;;31.00;57.60;;;;;;5103481;28;20693;-45
2022/07/25 11:24:15;;;;;;;8.00;5.50;;;31.00;57.60;;;;;;5097442;27;20198;-45
2022/07/25 11:26:46;;;;;;;5.22;4.82;;;31.10;57.80;;;;;;5112146;27;20566;-46
2022/07/25 11:29:19;;;;;;;4.97;4.57;;;31.10;57.20;;;;;;5104185;27;20925;-46
2022/07/25 11:31:52;;;;;;;5.25;4.82;;;31.10;57.20;;;;;;5106553;27;20854;-48
2022/07/25 11:34:22;;;;;;;5.35;4.55;;;31.20;57.50;;;;;;5097289;27;20209;-45
2022/07/25 11:36:50;;;;;;;5.07;4.68;;;31.20;57.20;;;;;;5108041;27;20296;-47
2022/07/25 11:39:18;;;;;;;5.68;5.13;;;31.20;57.00;;;;;;5106591;27;20849;-46
2022/07/25 11:41:45;;;;;;;6.47;4.93;;;31.10;57.00;;;;;;5106975;27;20207;-45
2022/07/25 11:44:12;;;;;;;5.13;4.72;;;31.20;57.20;;;;;;5100946;27;20942;-47
2022/07/25 11:46:43;;;;;;;10.82;5.43;;;31.20;57.50;;;;;;5111673;27;20689;-46
2022/07/25 11:49:11;;;;;;;5.65;4.88;;;31.30;57.30;;;;;;5102695;27;20770;-44
2022/07/25 11:51:38;;;;;;;5.35;4.85;;;31.40;57.10;;;;;;5112083;27;20740;-47
2022/07/25 11:54:12;;;;;;;5.35;4.95;;;31.40;56.60;;;;;;5111910;27;20220;-45
2022/07/25 11:56:40;;;;;;;5.70;5.20;;;31.30;56.90;;;;;;5101699;27;20269;-47
2022/07/25 11:59:07;;;;;;;5.60;5.20;;;31.30;56.70;;;;;;5100371;28;20201;-46
2022/07/25 12:01:35;;;;;;;5.78;5.38;;;31.40;56.80;;;;;;5105448;27;20728;-45
2022/07/25 12:04:13;;;;;;;9.10;5.22;;;31.60;56.50;;;;;;5098777;27;20245;-46
2022/07/25 12:06:40;;;;;;;5.25;4.95;;;31.80;56.10;;;;;;5105895;27;20762;-44
2022/07/25 12:09:13;;;;;;;5.55;5.15;;;31.90;55.60;;;;;;5108259;27;20564;-47
2022/07/25 12:11:40;;;;;;;5.63;5.13;;;32.00;55.90;;;;;;5101591;27;20666;-46
2022/07/25 12:14:07;;;;;;;5.85;5.35;;;32.10;55.30;;;;;;5109153;27;20224;-46
2022/07/25 12:16:35;;;;;;;5.68;5.15;;;32.30;55.10;;;;;;5105753;27;20596;-46
2022/07/25 12:19:02;;;;;;;5.65;5.22;;;32.40;54.80;;;;;;5109937;28;20208;-46
2022/07/25 12:21:29;;;;;;;5.45;5.05;;;32.40;54.50;;;;;;5097836;27;20227;-46
2022/07/25 12:23:56;;;;;;;7.47;5.15;;;32.40;54.30;;;;;;5105406;28;20197;-47
2022/07/25 12:26:27;;;;;;;5.47;4.93;;;;;;;;;;5110131;28;20242;-45
2022/07/25 12:28:53;;;;;;;6.03;4.95;;;32.90;91.50;;;;;;5104994;28;20216;-47
2022/07/25 12:31:20;;;;;;;5.32;4.90;;;32.80;90.20;;;;;;5101443;28;20277;-49
2022/07/25 12:33:48;;;;;;;5.32;4.93;;;32.80;90.00;;;;;;5111759;28;20220;-46
2022/07/25 12:36:15;;;;;;;5.55;5.03;;;32.80;89.60;;;;;;5081033;28;20613;-47
2022/07/25 12:38:41;;;;;;;5.28;4.80;;;32.50;87.40;;;;;;5106388;28;20740;-46
2022/07/25 12:41:08;;;;;;;7.15;5.10;;;32.50;85.70;;;;;;5101472;28;20189;-45
2022/07/25 12:43:36;;;;;;;5.22;4.25;;;32.60;84.70;;;;;;5106416;28;20223;-45
2022/07/25 12:46:05;;;;;;;5.15;4.75;;;32.80;85.50;;;;;;5108776;28;20587;-45
2022/07/25 12:48:32;;;;;;;4.95;4.60;;;32.80;86.10;;;;;;5105848;28;20196;-45
2022/07/25 12:50:59;;;;;;;5.00;4.70;;;32.90;85.80;;;;;;5095192;28;20227;-47
2022/07/25 12:53:25;;;;;;;5.50;5.10;;;32.50;85.10;;;;;;5102448;27;20924;-48
2022/07/25 12:55:52;;;;;;;5.20;4.80;;;32.20;84.90;;;;;;5122105;27;20529;-46